Time;durP1;ratioP1;P1;durP2;ratioP2;P2;SDS_P1;SDS_P2;PMS_P1;PMS_P2;Temp;Humidity;BMP_temperature;BMP_pressure;BME280_temperature;BME280_humidity;BME280_pressure;Samples;Min_cycle;Max_cycle;Signal;HPM_P1;HPM_P2
2021/04/28 00:00:46;;;;;;;4.77;2.90;;;;;;;;;;5101256;28;20321;-68
2021/04/28 00:03:14;;;;;;;5.07;2.80;;;;;;;;;;5101663;28;20229;-68
2021/04/28 00:05:41;;;;;;;7.17;3.03;;;;;;;;;;5101140;28;20304;-68
2021/04/28 00:08:08;;;;;;;4.70;2.87;;;;;;;;;;5101543;28;20211;-68
2021/04/28 00:10:38;;;;;;;5.30;2.70;;;;;;;;;;5101106;28;20284;-68
2021/04/28 00:13:05;;;;;;;5.57;2.90;;;;;;;;;;5101287;28;20288;-68
2021/04/28 00:15:35;;;;;;;4.33;2.63;;;;;;;;;;5101212;28;20244;-68
2021/04/28 00:18:03;;;;;;;4.27;2.90;;;;;;;;;;5101035;28;20288;-68
2021/04/28 00:20:37;;;;;;;3.60;2.77;;;;;;;;;;5101006;28;20229;-68
2021/04/28 00:23:04;;;;;;;5.57;3.03;;;;;;;;;;5101198;28;20212;-68
2021/04/28 00:25:41;;;;;;;2.87;2.60;;;;;;;;;;5101218;28;20259;-68
2021/04/28 00:28:08;;;;;;;5.30;3.00;;;;;;;;;;5101218;28;20287;-68
2021/04/28 00:30:35;;;;;;;5.37;3.20;;;;;;;;;;5100977;28;20241;-68
2021/04/28 00:33:02;;;;;;;4.50;3.00;;;;;;;;;;5100765;28;20292;-68
2021/04/28 00:35:29;;;;;;;6.70;3.17;;;;;;;;;;5100626;28;20226;-68
2021/04/28 00:37:57;;;;;;;5.27;2.87;;;;;;;;;;5100938;28;20284;-68
2021/04/28 00:40:27;;;;;;;3.53;2.80;;;;;;;;;;5100861;28;20225;-68
2021/04/28 00:42:55;;;;;;;4.27;2.70;;;;;;;;;;5100711;28;20272;-68
2021/04/28 00:45:24;;;;;;;2.63;2.40;;;;;;;;;;5100592;28;20427;-68
2021/04/28 00:47:51;;;;;;;3.60;2.60;;;;;;;;;;5100712;28;20289;-68
2021/04/28 00:50:19;;;;;;;3.20;2.80;;;;;;;;;;5100515;28;20233;-68
2021/04/28 00:52:47;;;;;;;5.53;3.13;;;;;;;;;;5100386;28;20609;-68
2021/04/28 00:55:17;;;;;;;3.67;2.90;;;;;;;;;;5100351;28;20226;-68
2021/04/28 00:57:44;;;;;;;5.27;2.53;;;;;;;;;;5100564;28;20233;-68
2021/04/28 01:00:13;;;;;;;4.10;2.63;;;;;;;;;;5100134;28;20652;-68
2021/04/28 01:02:40;;;;;;;2.77;2.57;;;;;;;;;;5100405;28;20202;-68
2021/04/28 01:05:08;;;;;;;6.73;2.80;;;;;;;;;;5100090;28;20261;-68
2021/04/28 01:07:35;;;;;;;4.93;3.13;;;;;;;;;;5100224;28;20699;-68
2021/04/28 01:10:04;;;;;;;4.80;3.00;;;;;;;;;;5099983;28;20260;-68
2021/04/28 01:12:32;;;;;;;4.07;2.73;;;;;;;;;;5100285;28;20293;-68
2021/04/28 01:15:00;;;;;;;4.07;2.77;;;;;;;;;;5099674;28;20304;-68
2021/04/28 01:17:28;;;;;;;2.93;2.33;;;;;;;;;;5100284;28;20252;-68
2021/04/28 01:19:55;;;;;;;5.73;3.13;;;;;;;;;;5099517;28;20226;-68
2021/04/28 01:22:22;;;;;;;6.63;3.13;;;;;;;;;;5100124;28;20657;-68
2021/04/28 01:24:50;;;;;;;4.63;3.03;;;;;;;;;;5099575;28;20247;-67
2021/04/28 01:27:22;;;;;;;5.37;2.90;;;;;;;;;;5098786;28;20261;-68
2021/04/28 01:29:50;;;;;;;4.73;3.17;;;;;;;;;;5096425;28;21022;-67
2021/04/28 01:32:19;;;;;;;7.50;3.43;;;;;;;;;;5098301;28;20292;-68
2021/04/28 01:34:47;;;;;;;5.70;2.87;;;;;;;;;;5097735;28;20300;-67
2021/04/28 01:37:15;;;;;;;4.47;3.27;;;;;;;;;;5098435;28;20715;-67
2021/04/28 01:39:42;;;;;;;7.23;3.10;;;;;;;;;;5096433;28;20710;-68
2021/04/28 01:42:10;;;;;;;5.63;2.77;;;;;;;;;;5098864;28;20559;-68
2021/04/28 01:44:38;;;;;;;8.37;3.20;;;;;;;;;;5098409;28;20217;-67
2021/04/28 01:47:05;;;;;;;3.30;2.70;;;;;;;;;;5097850;28;20253;-67
2021/04/28 01:49:33;;;;;;;5.10;3.30;;;;;;;;;;5098650;28;20209;-67
2021/04/28 01:52:01;;;;;;;5.63;2.97;;;;;;;;;;5098267;28;20735;-68
2021/04/28 01:54:28;;;;;;;8.20;3.07;;;;;;;;;;5098890;28;20399;-68
2021/04/28 01:56:55;;;;;;;8.23;3.33;;;;;;;;;;5098266;28;20288;-67
2021/04/28 01:59:24;;;;;;;4.23;2.83;;;;;;;;;;5098749;28;20319;-67
2021/04/28 02:01:52;;;;;;;5.17;3.13;;;;;;;;;;5096547;28;20281;-67
2021/04/28 02:04:19;;;;;;;3.63;2.60;;;;;;;;;;5098133;28;20229;-68
2021/04/28 02:06:48;;;;;;;8.00;2.80;;;;;;;;;;5098254;28;20725;-68
2021/04/28 02:09:15;;;;;;;3.23;2.87;;;;;;;;;;5099118;28;20295;-68
2021/04/28 02:11:42;;;;;;;6.77;3.57;;;;;;;;;;5097340;28;20683;-68
2021/04/28 02:14:12;;;;;;;5.13;2.80;;;;;;;;;;5097061;28;20241;-68
2021/04/28 02:16:41;;;;;;;4.77;2.80;;;;;;;;;;5097308;28;20292;-68
2021/04/28 02:19:09;;;;;;;3.77;2.90;;;;;;;;;;5096917;28;20210;-68
2021/04/28 02:21:38;;;;;;;4.53;2.97;;;;;;;;;;5096683;28;20661;-68
2021/04/28 02:24:06;;;;;;;4.20;2.87;;;;;;;;;;5096984;28;20293;-68
2021/04/28 02:26:33;;;;;;;6.10;2.70;;;;;;;;;;5096836;28;20289;-68
2021/04/28 02:29:01;;;;;;;6.07;3.20;;;;;;;;;;5097369;28;20255;-68
2021/04/28 02:31:28;;;;;;;3.60;2.87;;;;;;;;;;5097414;28;20269;-68
2021/04/28 02:33:56;;;;;;;5.10;3.20;;;;;;;;;;5098206;28;20610;-68
2021/04/28 02:36:24;;;;;;;4.50;2.83;;;;;;;;;;5098481;28;20308;-68
2021/04/28 02:38:53;;;;;;;6.50;3.10;;;;;;;;;;5098682;28;20292;-68
2021/04/28 02:41:21;;;;;;;4.33;3.17;;;;;;;;;;5098080;28;20595;-68
2021/04/28 02:43:48;;;;;;;3.80;2.90;;;;;;;;;;5098611;28;20293;-68
2021/04/28 02:46:17;;;;;;;4.50;2.70;;;;;;;;;;5098143;28;20272;-68
2021/04/28 02:48:44;;;;;;;4.80;3.00;;;;;;;;;;5098299;28;20629;-68
2021/04/28 02:51:12;;;;;;;5.70;2.93;;;;;;;;;;5097855;28;20288;-68
2021/04/28 02:53:41;;;;;;;5.40;2.90;;;;;;;;;;5098167;28;20295;-68
2021/04/28 02:56:08;;;;;;;3.57;2.37;;;;;;;;;;5098011;28;20544;-68
2021/04/28 02:58:35;;;;;;;5.63;3.03;;;;;;;;;;5098102;28;20209;-68
2021/04/28 03:01:03;;;;;;;5.20;2.70;;;;;;;;;;5098161;28;20285;-68
2021/04/28 03:03:30;;;;;;;4.10;2.80;;;;;;;;;;5097209;28;20748;-68
2021/04/28 03:05:57;;;;;;;4.10;3.20;;;;;;;;;;5094388;28;20224;-68
2021/04/28 03:08:25;;;;;;;5.03;3.30;;;;;;;;;;5098000;28;20229;-68
2021/04/28 03:10:53;;;;;;;6.33;3.37;;;;;;;;;;5087356;28;20221;-68
2021/04/28 03:13:20;;;;;;;5.43;3.63;;;;;;;;;;5097803;28;20295;-68
2021/04/28 03:15:48;;;;;;;5.17;3.40;;;;;;;;;;5097650;28;20256;-68
2021/04/28 03:18:15;;;;;;;3.47;3.07;;;;;;;;;;5097544;28;20289;-68
2021/04/28 03:20:45;;;;;;;7.97;3.60;;;;;;;;;;5097410;28;20312;-68
2021/04/28 03:23:12;;;;;;;4.50;3.60;;;;;;;;;;5098015;28;20675;-69
2021/04/28 03:25:41;;;;;;;7.40;3.43;;;;;;;;;;5098900;28;20284;-68
2021/04/28 03:28:08;;;;;;;4.53;3.13;;;;;;;;;;5098080;28;20265;-68
2021/04/28 03:30:35;;;;;;;4.77;3.50;;;;;;;;;;5098046;28;20208;-68
2021/04/28 03:33:02;;;;;;;9.30;3.70;;;;;;;;;;5097909;28;20244;-68
2021/04/28 03:35:30;;;;;;;4.93;3.40;;;;;;;;;;5097624;28;20233;-68
2021/04/28 03:37:57;;;;;;;3.43;3.13;;;;;;;;;;5097887;28;20233;-68
2021/04/28 03:40:24;;;;;;;4.57;3.50;;;;;;;;;;5097800;28;20229;-68
2021/04/28 03:42:52;;;;;;;5.20;3.27;;;;;;;;;;5097427;28;20711;-68
2021/04/28 03:45:19;;;;;;;5.53;3.40;;;;;;;;;;5097334;28;20229;-69
2021/04/28 03:47:46;;;;;;;6.40;3.10;;;;;;;;;;5097828;28;20240;-68
2021/04/28 03:50:13;;;;;;;4.17;3.37;;;;;;;;;;5097199;28;20288;-67
2021/04/28 03:52:48;;;;;;;6.27;3.30;;;;;;;;;;5097668;28;20205;-68
2021/04/28 03:55:15;;;;;;;3.67;3.23;;;;;;;;;;5097774;28;20317;-67
2021/04/28 03:57:42;;;;;;;4.63;3.50;;;;;;;;;;5097828;28;20661;-67
2021/04/28 04:00:11;;;;;;;3.90;3.37;;;;;;;;;;5097708;28;20257;-67
2021/04/28 04:02:38;;;;;;;6.53;3.50;;;;;;;;;;5097487;28;20775;-68
2021/04/28 04:05:06;;;;;;;4.00;3.13;;;;;;;;;;5097290;28;20313;-68
2021/04/28 04:07:33;;;;;;;4.30;3.73;;;;;;;;;;5097372;28;20206;-67
2021/04/28 04:10:00;;;;;;;6.77;4.47;;;;;;;;;;5097512;28;20681;-68
2021/04/28 04:12:26;;;;;;;5.47;3.93;;;;;;;;;;5097446;28;20292;-66
2021/04/28 04:14:53;;;;;;;7.47;3.80;;;;;;;;;;5099141;28;20293;-68
2021/04/28 04:17:21;;;;;;;4.80;3.53;;;;;;;;;;5101414;28;20292;-67
2021/04/28 04:19:48;;;;;;;5.80;3.80;;;;;;;;;;5100906;28;20265;-68
2021/04/28 04:22:15;;;;;;;8.63;3.90;;;;;;;;;;5101066;28;20288;-66
2021/04/28 04:24:42;;;;;;;7.07;3.80;;;;;;;;;;5101064;28;20261;-68
2021/04/28 04:27:09;;;;;;;6.27;3.77;;;;;;;;;;5101142;28;20236;-68
2021/04/28 04:29:36;;;;;;;6.90;3.70;;;;;;;;;;5100863;28;20288;-66
2021/04/28 04:32:03;;;;;;;5.40;3.70;;;;;;;;;;5101069;28;20635;-68
2021/04/28 04:34:33;;;;;;;4.07;3.53;;;;;;;;;;5100342;28;20279;-68
2021/04/28 04:37:00;;;;;;;5.23;3.70;;;;;;;;;;5101035;28;20213;-68
2021/04/28 04:39:27;;;;;;;6.03;3.97;;;;;;;;;;5100901;28;20201;-68
2021/04/28 04:41:54;;;;;;;7.80;4.23;;;;;;;;;;5100479;28;20308;-67
2021/04/28 04:44:22;;;;;;;4.03;3.60;;;;;;;;;;5100498;28;20228;-68
2021/04/28 04:46:49;;;;;;;6.17;4.23;;;;;;;;;;5100347;28;20720;-68
2021/04/28 04:49:16;;;;;;;8.27;4.20;;;;;;;;;;5100377;28;20214;-67
2021/04/28 04:51:44;;;;;;;6.37;4.10;;;;;;;;;;5100478;28;20232;-68
2021/04/28 04:54:11;;;;;;;5.43;4.37;;;;;;;;;;5100270;28;20300;-68
2021/04/28 04:56:38;;;;;;;9.43;4.50;;;;;;;;;;5100425;28;20642;-68
2021/04/28 04:59:05;;;;;;;9.80;4.40;;;;;;;;;;5100307;28;20252;-67
2021/04/28 05:01:32;;;;;;;5.13;4.23;;;;;;;;;;5100153;28;20747;-68
2021/04/28 05:03:59;;;;;;;7.57;4.07;;;;;;;;;;5099688;28;20292;-68
2021/04/28 05:06:26;;;;;;;6.97;4.63;;;;;;;;;;5100257;28;20288;-67
2021/04/28 05:08:54;;;;;;;5.57;4.57;;;;;;;;;;5100037;28;20300;-68
2021/04/28 05:11:21;;;;;;;8.80;4.63;;;;;;;;;;5100177;28;20240;-68
2021/04/28 05:13:48;;;;;;;9.50;4.97;;;;;;;;;;5099978;28;20209;-68
2021/04/28 05:16:15;;;;;;;7.63;4.90;;;;;;;;;;5100111;28;20285;-67
2021/04/28 05:18:42;;;;;;;6.73;4.57;;;;;;;;;;5100095;28;20212;-67
2021/04/28 05:21:09;;;;;;;13.10;4.67;;;;;;;;;;5099740;28;20225;-67
2021/04/28 05:23:37;;;;;;;10.13;4.47;;;;;;;;;;5100067;28;20746;-67
2021/04/28 05:26:05;;;;;;;8.20;5.37;;;;;;;;;;5098860;28;20716;-67
2021/04/28 05:28:31;;;;;;;7.50;4.57;;;;;;;;;;5099639;28;20297;-67
2021/04/28 05:30:58;;;;;;;7.17;4.63;;;;;;;;;;5099774;28;20284;-67
2021/04/28 05:33:25;;;;;;;6.33;4.43;;;;;;;;;;5099976;28;20236;-67
2021/04/28 05:35:53;;;;;;;6.73;4.93;;;;;;;;;;5099291;28;20225;-66
2021/04/28 05:38:21;;;;;;;6.50;4.97;;;;;;;;;;5099530;28;20637;-65
2021/04/28 05:40:47;;;;;;;8.40;6.03;;;;;;;;;;5099746;28;20727;-66
2021/04/28 05:43:15;;;;;;;5.87;5.27;;;;;;;;;;5099510;28;20292;-66
2021/04/28 05:45:43;;;;;;;9.10;5.47;;;;;;;;;;5099174;28;20324;-66
2021/04/28 05:48:11;;;;;;;7.70;5.80;;;;;;;;;;5099555;28;20205;-66
2021/04/28 05:50:38;;;;;;;7.03;5.80;;;;;;;;;;5098841;28;20630;-66
2021/04/28 05:53:06;;;;;;;7.23;5.57;;;;;;;;;;5099491;28;20292;-66
2021/04/28 05:55:33;;;;;;;8.03;4.90;;;;;;;;;;5098628;28;20218;-64
2021/04/28 05:58:00;;;;;;;6.87;5.30;;;;;;;;;;5098929;28;20197;-66
2021/04/28 06:00:28;;;;;;;6.27;5.33;;;;;;;;;;5096190;28;20286;-63
2021/04/28 06:02:56;;;;;;;8.63;4.97;;;;;;;;;;5098960;28;20201;-65
2021/04/28 06:05:23;;;;;;;7.33;5.17;;;;;;;;;;5098422;28;20238;-67
2021/04/28 06:07:50;;;;;;;7.37;5.77;;;;;;;;;;5099147;28;20284;-67
2021/04/28 06:10:17;;;;;;;7.80;5.67;;;;;;;;;;5096106;28;20202;-66
2021/04/28 06:12:45;;;;;;;8.33;5.53;;;;;;;;;;5097351;28;20205;-66
2021/04/28 06:15:12;;;;;;;5.63;4.60;;;;;;;;;;5106654;28;20249;-66
2021/04/28 06:17:41;;;;;;;5.50;5.00;;;;;;;;;;5097141;28;20229;-66
2021/04/28 06:20:09;;;;;;;6.97;5.07;;;;;;;;;;5086387;28;20212;-68
2021/04/28 06:22:37;;;;;;;7.37;4.97;;;;;;;;;;5088173;28;20209;-66
2021/04/28 06:25:05;;;;;;;8.17;5.27;;;;;;;;;;5087009;28;20214;-66
2021/04/28 06:27:32;;;;;;;8.10;5.40;;;;;;;;;;5085801;28;20205;-68
2021/04/28 06:29:59;;;;;;;7.67;5.13;;;;;;;;;;5103426;28;20283;-67
2021/04/28 06:32:26;;;;;;;5.33;4.83;;;;;;;;;;5106451;28;20277;-67
2021/04/28 06:34:54;;;;;;;9.00;4.87;;;;;;;;;;5104056;28;20233;-67
2021/04/28 06:37:21;;;;;;;5.00;4.50;;;;;;;;;;5108286;28;20627;-68
2021/04/28 06:39:48;;;;;;;7.23;5.17;;;;;;;;;;5102427;28;20234;-67
2021/04/28 06:42:15;;;;;;;6.00;4.87;;;;;;;;;;5106942;28;20221;-67
2021/04/28 06:44:42;;;;;;;6.27;4.43;;;;;;;;;;5104593;28;20260;-67
2021/04/28 06:47:09;;;;;;;5.27;4.77;;;;;;;;;;5098145;28;20257;-68
2021/04/28 06:49:36;;;;;;;6.27;4.67;;;;;;;;;;5087735;28;20294;-68
2021/04/28 06:52:04;;;;;;;6.10;4.67;;;;;;;;;;5106799;28;20225;-67
2021/04/28 06:54:32;;;;;;;6.93;5.00;;;;;;;;;;5104026;28;20232;-67
2021/04/28 06:56:59;;;;;;;5.57;4.90;;;;;;;;;;5108249;28;20285;-67
2021/04/28 06:59:30;;;;;;;6.63;4.37;;;;;;;;;;5105566;28;20201;-67
2021/04/28 07:01:57;;;;;;;6.10;4.70;;;;;;;;;;5106170;28;20221;-67
2021/04/28 07:04:25;;;;;;;6.57;4.77;;;;;;;;;;5106559;28;20263;-67
2021/04/28 07:06:52;;;;;;;5.40;4.60;;;;;;;;;;5097565;28;20286;-68
2021/04/28 07:09:20;;;;;;;5.13;4.60;;;;;;;;;;5097337;28;20284;-68
2021/04/28 07:11:47;;;;;;;5.50;4.50;;;;;;;;;;5102455;28;20276;-67
2021/04/28 07:14:14;;;;;;;5.97;4.50;;;;;;;;;;5099275;28;20232;-68
2021/04/28 07:16:41;;;;;;;5.17;4.40;;;;;;;;;;5097240;28;20289;-67
2021/04/28 07:19:08;;;;;;;5.53;4.70;;;;;;;;;;5097751;28;20201;-68
2021/04/28 07:21:35;;;;;;;5.47;4.27;;;;;;;;;;5105649;28;20307;-68
2021/04/28 07:24:02;;;;;;;5.83;4.43;;;;;;;;;;5105929;28;20307;-68
2021/04/28 07:26:30;;;;;;;5.73;4.10;;;;;;;;;;5086217;28;20241;-69
2021/04/28 07:28:57;;;;;;;5.67;4.83;;;;;;;;;;5097018;28;20306;-70
2021/04/28 07:31:24;;;;;;;5.70;4.83;;;;;;;;;;5097458;28;20205;-70
2021/04/28 07:33:51;;;;;;;6.67;4.27;;;;;;;;;;5096971;28;20216;-69
2021/04/28 07:36:18;;;;;;;7.70;5.20;;;;;;;;;;5097260;28;20309;-69
2021/04/28 07:38:45;;;;;;;6.00;4.23;;;;;;;;;;5096342;28;20252;-69
2021/04/28 07:41:12;;;;;;;6.73;4.33;;;;;;;;;;5095595;28;20232;-69
2021/04/28 07:43:40;;;;;;;5.20;4.73;;;;;;;;;;5095495;28;20670;-69
2021/04/28 07:46:07;;;;;;;3.97;3.57;;;;;;;;;;5095256;28;20745;-69
2021/04/28 07:48:34;;;;;;;4.73;4.23;;;;;;;;;;5095549;28;20667;-69
2021/04/28 07:51:01;;;;;;;4.60;4.00;;;;;;;;;;5099422;28;20197;-70
2021/04/28 07:53:28;;;;;;;5.57;4.20;;;;;;;;;;5099749;28;20210;-69
2021/04/28 07:55:55;;;;;;;7.17;4.60;;;;;;;;;;5101345;28;20255;-70
2021/04/28 07:58:22;;;;;;;5.67;3.93;;;;;;;;;;5101454;28;20209;-69
2021/04/28 08:00:50;;;;;;;4.97;3.97;;;;;;;;;;5102035;28;20312;-69
2021/04/28 08:03:17;;;;;;;5.27;3.83;;;;;;;;;;5102533;28;20284;-69
2021/04/28 08:05:44;;;;;;;4.30;3.77;;;;;;;;;;5101361;28;20225;-69
2021/04/28 08:08:11;;;;;;;4.33;3.50;;;;;;;;;;5101158;28;20715;-69
2021/04/28 08:10:38;;;;;;;5.07;3.30;;;;;;;;;;5093200;28;20206;-69
2021/04/28 08:13:09;;;;;;;3.60;3.20;;;;;;;;;;5096846;28;20263;-70
2021/04/28 08:15:36;;;;;;;3.57;3.10;;;;;;;;;;5100904;28;20224;-69
2021/04/28 08:18:05;;;;;;;5.30;3.53;;;;;;;;;;5091549;28;20280;-69
2021/04/28 08:20:32;;;;;;;6.87;3.40;;;;;;;;;;5100641;28;20265;-69
2021/04/28 08:22:59;;;;;;;4.07;3.30;;;;;;;;;;5101027;28;20672;-69
2021/04/28 08:25:26;;;;;;;4.27;3.87;;;;;;;;;;5101184;28;20774;-69
2021/04/28 08:27:53;;;;;;;5.97;3.33;;;;;;;;;;5100730;28;20241;-69
2021/04/28 08:30:21;;;;;;;4.07;3.40;;;;;;;;;;5100767;28;20660;-69
2021/04/28 08:32:56;;;;;;;3.03;2.73;;;;;;;;;;5100879;28;20289;-68
2021/04/28 08:35:24;;;;;;;5.27;2.73;;;;;;;;;;5100417;28;20225;-69
2021/04/28 08:37:51;;;;;;;4.07;2.30;;;;;;;;;;5100672;28;20201;-69
2021/04/28 08:40:18;;;;;;;4.93;2.43;;;;;;;;;;5100876;28;20687;-69
2021/04/28 08:42:46;;;;;;;3.37;2.63;;;;;;;;;;5100292;28;20280;-69
2021/04/28 08:45:13;;;;;;;2.97;2.03;;;;;;;;;;5100065;28;20225;-70
2021/04/28 08:47:42;;;;;;;2.50;2.20;;;;;;;;;;5086961;28;20201;-69
2021/04/28 08:50:09;;;;;;;2.57;2.20;;;;;;;;;;5099868;28;20289;-70
2021/04/28 08:52:37;;;;;;;5.87;2.23;;;;;;;;;;5100573;28;20288;-69
2021/04/28 08:55:05;;;;;;;2.87;2.53;;;;;;;;;;5099683;28;20309;-70
2021/04/28 08:57:32;;;;;;;9.83;3.43;;;;;;;;;;5100317;28;20269;-69
2021/04/28 08:59:59;;;;;;;3.93;2.00;;;;;;;;;;5100066;28;20237;-69
2021/04/28 09:02:27;;;;;;;2.30;2.10;;;;;;;;;;5099245;28;20312;-70
2021/04/28 09:05:09;;;;;;;4.07;2.17;;;;;;;;;;5099791;28;20225;-70
2021/04/28 09:07:38;;;;;;;4.90;2.30;;;;;;;;;;5100288;28;20209;-68
2021/04/28 09:10:06;;;;;;;2.97;2.17;;;;;;;;;;5096510;28;20245;-69
2021/04/28 09:12:33;;;;;;;3.20;2.70;;;;;;;;;;5091041;28;20236;-68
2021/04/28 09:15:01;;;;;;;2.93;2.50;;;;;;;;;;5099852;28;20229;-68
2021/04/28 09:17:28;;;;;;;4.13;2.63;;;;;;;;;;5100174;28;20206;-70
2021/04/28 09:20:14;;;;;;;3.77;2.50;;;;;;;;;;5099689;28;20288;-69
2021/04/28 09:22:49;;;;;;;4.03;2.80;;;;;;;;;;5099409;28;20229;-67
2021/04/28 09:25:32;;;;;;;5.53;3.03;;;;;;;;;;5099836;28;20288;-69
2021/04/28 09:28:20;;;;;;;4.67;2.80;;;;;;;;;;5099667;28;20288;-69
2021/04/28 09:30:47;;;;;;;4.03;2.80;;;;;;;;;;5099617;28;20216;-70
2021/04/28 09:33:14;;;;;;;6.77;3.77;;;;;;;;;;5099619;28;20721;-69
2021/04/28 09:35:41;;;;;;;5.50;3.00;;;;;;;;;;5099168;28;20232;-69
2021/04/28 09:38:10;;;;;;;3.27;2.67;;;;;;;;;;5099532;28;20212;-69
2021/04/28 09:40:42;;;;;;;5.40;3.03;;;;;;;;;;5099230;28;20668;-68
2021/04/28 09:43:09;;;;;;;10.30;3.30;;;;;;;;;;5089746;28;20543;-69
2021/04/28 09:45:37;;;;;;;6.03;3.20;;;;;;;;;;5097178;28;20237;-69
2021/04/28 09:48:04;;;;;;;6.83;2.97;;;;;;;;;;5099551;28;20212;-69
2021/04/28 09:50:32;;;;;;;3.07;2.83;;;;;;;;;;5098920;28;20205;-69
2021/04/28 09:52:59;;;;;;;12.17;3.80;;;;;;;;;;5099416;28;20197;-69
2021/04/28 09:55:27;;;;;;;4.97;2.97;;;;;;;;;;5099194;28;20244;-69
2021/04/28 09:57:54;;;;;;;3.50;2.83;;;;;;;;;;5099112;28;20210;-69
2021/04/28 10:00:22;;;;;;;7.83;3.70;;;;;;;;;;5098836;28;20247;-69
2021/04/28 10:02:53;;;;;;;5.97;3.43;;;;;;;;;;5098727;28;20585;-69
2021/04/28 10:05:25;;;;;;;4.87;2.90;;;;;;;;;;5098486;28;20708;-69
2021/04/28 10:07:53;;;;;;;5.50;3.10;;;;;;;;;;5099090;28;20209;-69
2021/04/28 10:10:20;;;;;;;3.10;2.80;;;;;;;;;;5093380;28;20210;-69
2021/04/28 10:12:48;;;;;;;5.37;2.87;;;;;;;;;;5092976;28;20284;-69
2021/04/28 10:15:15;;;;;;;5.00;2.93;;;;;;;;;;5098811;28;20232;-69
2021/04/28 10:17:43;;;;;;;3.73;2.80;;;;;;;;;;5098589;28;20290;-69
2021/04/28 10:20:11;;;;;;;2.83;2.50;;;;;;;;;;5098415;28;20243;-69
2021/04/28 10:22:38;;;;;;;6.63;2.87;;;;;;;;;;5098344;28;20264;-69
2021/04/28 10:25:07;;;;;;;2.80;2.50;;;;;;;;;;5085992;28;20768;-69
2021/04/28 10:27:34;;;;;;;4.37;2.43;;;;;;;;;;5097306;28;20216;-69
2021/04/28 10:30:03;;;;;;;2.67;2.10;;;;;;;;;;5097938;28;20206;-69
2021/04/28 10:32:31;;;;;;;4.70;2.40;;;;;;;;;;5098870;28;20227;-69
2021/04/28 10:35:00;;;;;;;3.80;2.50;;;;;;;;;;5098293;28;20221;-69
2021/04/28 10:37:29;;;;;;;3.87;2.63;;;;;;;;;;5098722;28;20213;-69
2021/04/28 10:39:56;;;;;;;2.40;2.20;;;;;;;;;;5098454;28;20611;-70
2021/04/28 10:42:25;;;;;;;3.07;2.33;;;;;;;;;;5098118;28;20795;-68
2021/04/28 10:44:52;;;;;;;4.47;2.63;;;;;;;;;;5098222;28;20221;-67
2021/04/28 10:47:27;;;;;;;3.90;2.50;;;;;;;;;;5097957;28;20270;-69
2021/04/28 10:50:01;;;;;;;4.03;2.90;;;;;;;;;;5097555;28;20631;-69
2021/04/28 10:52:30;;;;;;;2.60;2.40;;;;;;;;;;5096477;28;20665;-68
2021/04/28 10:54:58;;;;;;;4.37;2.60;;;;;;;;;;5085714;28;20643;-68
2021/04/28 10:57:39;;;;;;;2.23;2.03;;;;;;;;;;5098138;28;20204;-68
2021/04/28 11:00:25;;;;;;;6.43;2.60;;;;;;;;;;5099652;28;20284;-70
2021/04/28 11:02:55;;;;;;;3.50;2.43;;;;;;;;;;5104217;28;20303;-70
2021/04/28 11:05:25;;;;;;;4.20;2.60;;;;;;;;;;5083586;28;20226;-67
2021/04/28 11:07:53;;;;;;;2.30;2.10;;;;;;;;;;5084962;28;20279;-66
2021/04/28 11:10:24;;;;;;;3.03;1.83;;;;;;;;;;5084947;28;20675;-66
2021/04/28 11:13:08;;;;;;;1.90;1.70;;;;;;;;;;5085773;28;20208;-64
2021/04/28 11:15:51;;;;;;;1.50;1.40;;;;;;;;;;5084883;28;20255;-66
2021/04/28 11:18:36;;;;;;;1.47;1.20;;;;;;;;;;5083970;28;20265;-67
2021/04/28 11:21:11;;;;;;;1.37;1.03;;;;;;;;;;5082795;28;20204;-66
2021/04/28 11:23:38;;;;;;;2.07;1.20;;;;;;;;;;5083947;28;20275;-66
2021/04/28 11:26:24;;;;;;;2.93;1.00;;;;;;;;;;5084391;28;20214;-66
2021/04/28 11:28:54;;;;;;;1.43;1.17;;;;;;;;;;5084561;28;20226;-66
2021/04/28 11:31:22;;;;;;;1.27;1.17;;;;;;;;;;5083404;28;20194;-66
2021/04/28 11:33:49;;;;;;;1.53;1.13;;;;;;;;;;5084921;28;20215;-69
2021/04/28 11:36:18;;;;;;;1.23;1.10;;;;;;;;;;5085069;28;20250;-67
2021/04/28 11:38:47;;;;;;;1.03;1.03;;;;;;;;;;5085346;28;20230;-67
2021/04/28 11:41:14;;;;;;;1.33;1.00;;;;;;;;;;5099037;28;20211;-67
2021/04/28 11:43:44;;;;;;;1.63;1.17;;;;;;;;;;5105824;28;20218;-68
2021/04/28 11:46:12;;;;;;;0.90;0.90;;;;;;;;;;5106165;28;20300;-68
2021/04/28 11:48:39;;;;;;;1.90;1.00;;;;;;;;;;5105767;28;20307;-68
2021/04/28 11:51:08;;;;;;;1.43;1.07;;;;;;;;;;5108231;28;20239;-68
2021/04/28 11:53:40;;;;;;;1.33;0.80;;;;;;;;;;5093060;28;20682;-68
2021/04/28 11:56:08;;;;;;;1.80;0.80;;;;;;;;;;5088519;28;20310;-68
2021/04/28 11:58:35;;;;;;;0.80;0.80;;;;;;;;;;5085103;28;20201;-68
2021/04/28 12:01:04;;;;;;;1.40;1.03;;;;;;;;;;5084053;28;20680;-68
2021/04/28 12:03:45;;;;;;;0.83;0.83;;;;;;;;;;5081614;28;20206;-68
2021/04/28 12:06:31;;;;;;;0.93;0.70;;;;;;;;;;5081743;28;20404;-67
2021/04/28 12:09:16;;;;;;;0.70;0.50;;;;;;;;;;5104097;28;20193;-68
2021/04/28 12:11:45;;;;;;;2.90;0.70;;;;;;;;;;5107362;28;20231;-69
2021/04/28 12:14:12;;;;;;;0.80;0.80;;;;;;;;;;5096034;28;20197;-69
2021/04/28 12:16:40;;;;;;;0.87;0.87;;;;;;;;;;5082041;28;20291;-67
2021/04/28 12:19:11;;;;;;;0.73;0.70;;;;;;;;;;5091564;28;20215;-68
2021/04/28 12:21:38;;;;;;;0.70;0.60;;;;;;;;;;5083316;28;20583;-70
2021/04/28 12:24:06;;;;;;;1.23;0.77;;;;;;;;;;5082944;28;20276;-68
2021/04/28 12:26:33;;;;;;;2.13;0.70;;;;;;;;;;5079759;28;20198;-66
2021/04/28 12:29:00;;;;;;;0.67;0.67;;;;;;;;;;5082502;28;20277;-67
2021/04/28 12:31:45;;;;;;;1.07;0.80;;;;;;;;;;5083871;28;20256;-66
2021/04/28 12:34:16;;;;;;;0.73;0.70;;;;;;;;;;5082075;28;20214;-67
2021/04/28 12:36:43;;;;;;;0.80;0.80;;;;;;;;;;5091809;28;20231;-67
2021/04/28 12:39:10;;;;;;;0.60;0.60;;;;;;;;;;5107696;28;20233;-68
2021/04/28 12:41:37;;;;;;;2.10;1.10;;;;;;;;;;5108451;28;20299;-67
2021/04/28 12:44:06;;;;;;;1.73;0.73;;;;;;;;;;5109861;28;20336;-67
2021/04/28 12:46:33;;;;;;;1.33;0.90;;;;;;;;;;5099127;28;20605;-67
2021/04/28 12:49:01;;;;;;;0.80;0.80;;;;;;;;;;5099445;28;20205;-67
2021/04/28 12:51:29;;;;;;;0.60;0.60;;;;;;;;;;5100587;28;20205;-67
2021/04/28 12:53:56;;;;;;;1.40;0.60;;;;;;;;;;5098982;28;20216;-67
2021/04/28 12:56:24;;;;;;;1.60;0.40;;;;;;;;;;5098417;28;20229;-67
2021/04/28 12:58:52;;;;;;;0.57;0.57;;;;;;;;;;5098450;28;20296;-67
2021/04/28 13:01:21;;;;;;;0.77;0.60;;;;;;;;;;5098758;28;20778;-67
2021/04/28 13:03:48;;;;;;;0.43;0.43;;;;;;;;;;5098691;28;20210;-67
2021/04/28 13:06:19;;;;;;;0.50;0.50;;;;;;;;;;5099139;28;20253;-67
2021/04/28 13:08:46;;;;;;;0.67;0.63;;;;;;;;;;5099989;28;20216;-67
2021/04/28 13:11:14;;;;;;;0.40;0.40;;;;;;;;;;5100270;28;20210;-67
2021/04/28 13:13:43;;;;;;;1.90;0.60;;;;;;;;;;5100323;28;20240;-67
2021/04/28 13:16:29;;;;;;;1.97;0.77;;;;;;;;;;5099991;28;20253;-67
2021/04/28 13:18:57;;;;;;;5.03;0.70;;;;;;;;;;5099708;28;20222;-67
2021/04/28 13:21:26;;;;;;;0.50;0.50;;;;;;;;;;5099823;28;20209;-67
2021/04/28 13:24:00;;;;;;;1.60;0.63;;;;;;;;;;5099841;28;20205;-68
2021/04/28 13:26:27;;;;;;;2.47;0.73;;;;;;;;;;5099708;28;20671;-67
2021/04/28 13:28:56;;;;;;;4.33;0.60;;;;;;;;;;5099895;28;20287;-67
2021/04/28 13:31:23;;;;;;;1.67;0.77;;;;;;;;;;5099885;28;20720;-67
2021/04/28 13:33:51;;;;;;;0.67;0.67;;;;;;;;;;5099560;28;20214;-67
2021/04/28 13:36:20;;;;;;;0.90;0.90;;;;;;;;;;5099506;28;20304;-67
2021/04/28 13:38:47;;;;;;;0.90;0.90;;;;;;;;;;5099824;28;20210;-68
2021/04/28 13:41:14;;;;;;;0.80;0.63;;;;;;;;;;5099331;28;20288;-68
2021/04/28 13:43:41;;;;;;;0.80;0.80;;;;;;;;;;5099503;28;20288;-67
2021/04/28 13:46:08;;;;;;;1.00;0.80;;;;;;;;;;5099220;28;20704;-67
2021/04/28 13:48:35;;;;;;;4.63;1.10;;;;;;;;;;5098583;28;20220;-68
2021/04/28 13:51:03;;;;;;;3.37;2.43;;;;;;;;;;5099453;28;20339;-68
2021/04/28 13:53:30;;;;;;;1.30;0.77;;;;;;;;;;5099576;28;20288;-69
2021/04/28 13:55:58;;;;;;;0.80;0.80;;;;;;;;;;5099570;28;20312;-68
2021/04/28 13:58:25;;;;;;;0.60;0.60;;;;;;;;;;5099367;28;20292;-69
2021/04/28 14:00:52;;;;;;;0.80;0.70;;;;;;;;;;5099217;28;20300;-69
2021/04/28 14:03:19;;;;;;;1.37;0.80;;;;;;;;;;5099071;28;20222;-68
2021/04/28 14:05:46;;;;;;;1.93;0.90;;;;;;;;;;5099169;28;20225;-68
2021/04/28 14:08:14;;;;;;;1.20;1.10;;;;;;;;;;5099268;28;20292;-69
2021/04/28 14:10:42;;;;;;;1.03;1.00;;;;;;;;;;5099271;28;20209;-68
2021/04/28 14:13:09;;;;;;;2.30;1.10;;;;;;;;;;5098748;28;20771;-68
2021/04/28 14:15:36;;;;;;;1.33;1.03;;;;;;;;;;5099102;28;20261;-68
2021/04/28 14:18:03;;;;;;;1.10;1.10;;;;;;;;;;5099074;28;20213;-68
2021/04/28 14:20:30;;;;;;;1.27;0.90;;;;;;;;;;5098833;28;20221;-69
2021/04/28 14:22:57;;;;;;;3.80;0.87;;;;;;;;;;5098651;28;20321;-69
2021/04/28 14:25:25;;;;;;;2.53;0.97;;;;;;;;;;5083803;28;20229;-68
2021/04/28 14:27:52;;;;;;;1.97;0.90;;;;;;;;;;5097263;28;20315;-68
2021/04/28 14:30:22;;;;;;;0.83;0.83;;;;;;;;;;5098303;28;20209;-69
2021/04/28 14:32:50;;;;;;;3.63;1.13;;;;;;;;;;5098630;28;20288;-68
2021/04/28 14:35:17;;;;;;;1.70;1.10;;;;;;;;;;5098343;28;20244;-68
2021/04/28 14:37:44;;;;;;;1.43;1.00;;;;;;;;;;5098414;28;20292;-69
2021/04/28 14:40:12;;;;;;;5.97;1.20;;;;;;;;;;5098507;28;20274;-68
2021/04/28 14:42:39;;;;;;;1.83;1.20;;;;;;;;;;5097608;28;20309;-67
2021/04/28 14:45:08;;;;;;;2.97;1.40;;;;;;;;;;5095596;28;20224;-68
2021/04/28 14:47:35;;;;;;;3.33;1.20;;;;;;;;;;5097783;28;20198;-68
2021/04/28 14:50:03;;;;;;;1.60;1.30;;;;;;;;;;5097641;28;20209;-67